CheckWX is a tool to help pilots better visualize weather data.  It is not intended as a substitute for an official pre-flight weather briefing.

21:43:44 UTC

RKJK TAF
Kunsan Air Base
Kunsan, South Korea
TAF RKJK 132300Z 1323/1505 19012KT 8000 -RA OVC006 QNH2951INS TEMPO 1323/1404 2400 -RA BR OVC004 BECMG 1404/1405 02012G22KT 8000 -SHRA BKN012 OVC020 QNH2952INS BECMG 1410/1411 01010KT 8000 BR OVC030 QNH2967INS BECMG 1418/1419 02009KT 8000 DZ BR BKN015 QNH2967INS BECMG 1504/1505 VRB06KT 9999 NSW FEW023 QNH2970INS TX22/1408Z TN19/1419Z

Jul-13@
23:00 UTC

Jul-13 @ 23:00 UTC

Jul-14@
04:00 UTC

Jul-14 @ 04:00 UTC

TAF RKJK 132300Z 1323/1505 19012KT 8000 -RA OVC006 QNH2951INS

Expired

Wind
  • 190° at 12 KTS
Conditions
Light Rain
Cloud Levels
  • Overcast at 600' AGL

Jul-13@
23:00 UTC

Jul-13 @ 23:00 UTC

Jul-14@
04:00 UTC

Jul-14 @ 04:00 UTC

TEMPO 1323/1404 2400 -RA BR OVC004

Expired

Conditions
Light Rain, Mist
Cloud Levels
  • Overcast at 400' AGL

Jul-14@
04:00 UTC

Jul-14 @ 04:00 UTC

Jul-14@
10:00 UTC

Jul-14 @ 10:00 UTC

BECMG 1404/1405 02012G22KT 8000 -SHRA BKN012 OVC020 QNH2952INS

Expired

Wind
  • 020° at 12 KTS
  • {Gusting to 22 KTS
Conditions
Light Showers, Rain
Cloud Levels
  • Broken at 1,200' AGL
  • Overcast at 2,000' AGL

Jul-14@
10:00 UTC

Jul-14 @ 10:00 UTC

Jul-14@
18:00 UTC

Jul-14 @ 18:00 UTC

BECMG 1410/1411 01010KT 8000 BR OVC030 QNH2967INS

Expired

Wind
  • 010° at 10 KTS
Conditions
Mist
Cloud Levels
  • Overcast at 3,000' AGL

Jul-14@
18:00 UTC

Jul-14 @ 18:00 UTC

Jul-15@
04:00 UTC

Jul-15 @ 04:00 UTC

BECMG 1418/1419 02009KT 8000 DZ BR BKN015 QNH2967INS

Becoming

Becoming Conditions expected by Tue, Jul 14, 2020 @ 19:00 UTC

Wind
  • 020° at 9 KTS
Conditions
Drizzle, Mist
Cloud Levels
  • Broken at 1,500' AGL

Jul-15@
04:00 UTC

Jul-15 @ 04:00 UTC

Jul-15@
05:00 UTC

Jul-15 @ 05:00 UTC

BECMG 1504/1505 VRB06KT 9999 NSW FEW023 QNH2970INS TX22/1408Z TN19/1419Z

Becoming

Becoming Conditions expected by Wed, Jul 15, 2020 @ 05:00 UTC

Wind
  • Variable at 6 KTS
Conditions
No significant weather
Cloud Levels
  • Few at 2,300' AGL